Time;durP1;ratioP1;P1;durP2;ratioP2;P2;SDS_P1;SDS_P2;PMS_P1;PMS_P2;Temp;Humidity;BMP_temperature;BMP_pressure;BME280_temperature;BME280_humidity;BME280_pressure;Samples;Min_cycle;Max_cycle;Signal;HPM_P1;HPM_P2
2021/05/24 00:01:27;;;;;;;3.30;1.60;;;8.20;99.90;;;;;;5034538;28;20193;-91
2021/05/24 00:03:52;;;;;;;2.75;1.80;;;8.20;99.90;;;;;;5037895;28;20293;-90
2021/05/24 00:06:18;;;;;;;6.57;1.80;;;8.20;99.90;;;;;;5038541;28;20247;-89
2021/05/24 00:08:44;;;;;;;6.53;1.90;;;8.20;99.90;;;;;;5032724;28;20198;-88
2021/05/24 00:11:10;;;;;;;3.28;1.90;;;8.20;99.90;;;;;;5037842;28;20206;-91
2021/05/24 00:13:44;;;;;;;3.72;1.85;;;8.20;99.90;;;;;;5036671;28;20565;-91
2021/05/24 00:16:10;;;;;;;2.05;1.60;;;8.20;99.90;;;;;;5036941;28;20205;-89
2021/05/24 00:18:35;;;;;;;2.15;1.80;;;8.20;99.90;;;;;;5039398;28;20231;-90
2021/05/24 00:21:01;;;;;;;5.13;1.80;;;8.20;99.90;;;;;;5036905;28;20210;-90
2021/05/24 00:23:30;;;;;;;3.28;1.80;;;8.20;99.90;;;;;;5036121;28;20198;-89
2021/05/24 00:25:56;;;;;;;4.05;1.80;;;8.20;99.90;;;;;;5038865;28;20194;-87
2021/05/24 00:28:22;;;;;;;2.88;1.60;;;8.20;99.90;;;;;;5051005;28;20742;-90
2021/05/24 00:30:50;;;;;;;2.40;1.67;;;8.20;99.90;;;;;;5031968;28;20198;-90
2021/05/24 00:33:18;;;;;;;3.45;2.10;;;8.10;99.90;;;;;;5042526;28;20208;-91
2021/05/24 00:35:44;;;;;;;4.60;1.73;;;8.10;99.90;;;;;;5038006;28;20692;-90
2021/05/24 00:38:10;;;;;;;3.97;1.80;;;8.20;99.90;;;;;;5035139;28;20198;-90
2021/05/24 00:40:37;;;;;;;3.38;1.83;;;8.10;99.90;;;;;;5032536;28;22557;-90
2021/05/24 00:43:05;;;;;;;2.47;1.83;;;8.10;99.90;;;;;;5039965;28;20715;-90
2021/05/24 00:45:31;;;;;;;4.18;2.33;;;8.10;99.90;;;;;;5033866;28;20197;-88
2021/05/24 00:47:57;;;;;;;4.72;2.10;;;8.10;99.90;;;;;;5035017;28;20573;-88
2021/05/24 00:50:22;;;;;;;6.68;2.10;;;8.00;99.90;;;;;;5035996;28;20220;-91
2021/05/24 00:52:48;;;;;;;7.38;2.28;;;7.90;99.90;;;;;;5036248;28;20368;-91
2021/05/24 00:55:14;;;;;;;6.25;1.90;;;8.00;99.90;;;;;;5035418;28;20252;-90
2021/05/24 00:57:41;;;;;;;6.68;2.40;;;8.00;99.90;;;;;;5035960;28;20675;-90
2021/05/24 01:00:26;;;;;;;5.60;2.22;;;7.90;99.90;;;;;;5034597;28;20214;-90
2021/05/24 01:02:52;;;;;;;8.18;2.00;;;7.90;99.90;;;;;;5045893;23;20809;-72
2021/05/24 01:05:18;;;;;;;6.20;2.30;;;7.80;99.90;;;;;;5017424;28;20277;-72
2021/05/24 01:07:44;;;;;;;5.35;1.88;;;7.80;99.90;;;;;;5021705;28;20288;-72
2021/05/24 01:10:10;;;;;;;6.13;2.42;;;7.80;99.90;;;;;;5020721;28;20248;-72
2021/05/24 01:12:36;;;;;;;4.15;2.08;;;7.80;99.90;;;;;;5019364;28;20221;-73
2021/05/24 01:15:03;;;;;;;4.57;2.08;;;7.80;99.90;;;;;;5022195;28;20315;-72
2021/05/24 01:17:28;;;;;;;4.97;1.90;;;7.80;99.90;;;;;;5035604;28;20209;-72
2021/05/24 01:19:54;;;;;;;9.02;2.40;;;7.70;99.90;;;;;;5037342;28;20215;-72
2021/05/24 01:22:21;;;;;;;8.32;1.90;;;7.70;99.90;;;;;;5020842;28;20273;-71
2021/05/24 01:24:49;;;;;;;5.82;2.20;;;7.70;99.90;;;;;;5038361;28;20289;-71
2021/05/24 01:27:15;;;;;;;2.67;1.90;;;7.70;99.90;;;;;;5016232;28;20234;-72
2021/05/24 01:29:41;;;;;;;3.58;2.53;;;7.60;99.90;;;;;;5019210;28;20655;-72
2021/05/24 01:32:08;;;;;;;7.40;2.45;;;7.60;99.90;;;;;;5038504;28;20947;-72
2021/05/24 01:34:34;;;;;;;7.47;2.50;;;7.60;99.90;;;;;;5025023;28;20209;-72
2021/05/24 01:37:01;;;;;;;5.13;2.00;;;7.50;99.90;;;;;;5024707;28;20190;-72
2021/05/24 01:39:27;;;;;;;4.32;2.15;;;7.50;99.90;;;;;;5015729;28;20202;-75
2021/05/24 01:41:53;;;;;;;5.90;2.30;;;7.50;99.90;;;;;;5017271;28;20680;-72
2021/05/24 01:44:32;;;;;;;5.78;2.72;;;7.50;99.90;;;;;;5025739;28;20319;-74
2021/05/24 01:46:58;;;;;;;5.65;2.17;;;7.40;99.90;;;;;;5025405;28;20767;-75
2021/05/24 01:49:24;;;;;;;7.03;3.50;;;7.40;99.90;;;;;;5023843;28;20212;-72
2021/05/24 01:51:50;;;;;;;8.30;2.53;;;7.40;99.90;;;;;;5025476;28;20209;-71
2021/05/24 01:54:16;;;;;;;5.55;2.10;;;7.40;99.90;;;;;;5017670;28;20592;-71
2021/05/24 01:56:42;;;;;;;5.72;2.60;;;7.40;99.90;;;;;;5023733;28;20206;-72
2021/05/24 01:59:09;;;;;;;3.15;1.98;;;7.30;99.90;;;;;;5037753;28;20225;-74
2021/05/24 02:01:35;;;;;;;4.93;2.00;;;7.40;99.90;;;;;;5018845;28;20222;-75
2021/05/24 02:04:01;;;;;;;4.60;2.17;;;7.40;99.90;;;;;;5019172;28;20230;-72
2021/05/24 02:06:27;;;;;;;6.45;2.20;;;7.40;99.90;;;;;;5019352;28;20230;-75
2021/05/24 02:08:53;;;;;;;5.60;2.40;;;7.30;99.90;;;;;;5023840;28;20202;-75
2021/05/24 02:11:18;;;;;;;10.15;2.92;;;7.30;99.90;;;;;;5020424;28;20893;-72
2021/05/24 02:13:45;;;;;;;5.25;2.45;;;7.30;99.90;;;;;;5019719;28;20240;-72
2021/05/24 02:16:11;;;;;;;6.68;2.50;;;7.20;99.90;;;;;;5015256;28;20264;-72
2021/05/24 02:18:37;;;;;;;6.10;2.50;;;7.20;99.90;;;;;;5017257;28;20201;-72
2021/05/24 02:21:06;;;;;;;4.68;2.42;;;7.10;99.90;;;;;;5022757;28;20202;-72
2021/05/24 02:23:32;;;;;;;5.80;2.30;;;7.10;99.90;;;;;;5021826;28;20878;-71
2021/05/24 02:25:58;;;;;;;4.53;2.28;;;7.10;99.90;;;;;;5023330;28;20198;-71
2021/05/24 02:28:24;;;;;;;4.28;2.08;;;7.10;99.90;;;;;;5018505;28;20244;-71
2021/05/24 02:30:49;;;;;;;5.57;2.10;;;7.00;99.90;;;;;;5022322;28;20565;-72
2021/05/24 02:33:15;;;;;;;5.00;2.30;;;7.10;99.90;;;;;;5026796;28;20198;-72
2021/05/24 02:35:41;;;;;;;3.25;2.10;;;7.10;99.90;;;;;;5020106;28;20199;-71
2021/05/24 02:38:07;;;;;;;3.83;2.30;;;7.10;99.90;;;;;;5020327;28;20253;-72
2021/05/24 02:40:33;;;;;;;7.97;2.60;;;7.00;99.90;;;;;;5024433;28;20318;-72
2021/05/24 02:43:01;;;;;;;4.00;2.17;;;7.10;99.90;;;;;;5023588;28;20194;-73
2021/05/24 02:45:27;;;;;;;7.80;2.40;;;7.10;99.90;;;;;;5026828;28;20197;-72
2021/05/24 02:47:52;;;;;;;4.78;2.35;;;7.00;99.90;;;;;;5026948;28;20208;-72
2021/05/24 02:50:22;;;;;;;5.68;2.58;;;7.10;99.90;;;;;;5026508;28;20198;-70
2021/05/24 02:52:47;;;;;;;6.88;2.60;;;7.00;99.90;;;;;;5025320;28;20221;-70
2021/05/24 02:55:14;;;;;;;4.30;2.20;;;7.00;99.90;;;;;;5020071;28;20623;-71
2021/05/24 02:57:39;;;;;;;8.23;2.42;;;7.00;99.90;;;;;;5020807;28;20202;-70
2021/05/24 03:00:06;;;;;;;3.22;2.20;;;7.10;99.90;;;;;;5021826;28;20741;-71
2021/05/24 03:02:32;;;;;;;5.78;2.25;;;7.10;99.90;;;;;;5029285;28;20310;-71
2021/05/24 03:04:58;;;;;;;4.25;2.28;;;7.10;99.90;;;;;;5023740;28;20266;-70
2021/05/24 03:07:24;;;;;;;4.25;2.50;;;7.10;99.90;;;;;;5025667;28;20621;-70
2021/05/24 03:09:49;;;;;;;5.97;2.42;;;7.10;99.90;;;;;;5024132;28;20210;-73
2021/05/24 03:12:15;;;;;;;8.30;2.40;;;7.00;99.90;;;;;;5029236;28;20617;-71
2021/05/24 03:14:41;;;;;;;5.47;2.17;;;7.00;99.90;;;;;;5020726;28;20581;-71
2021/05/24 03:17:08;;;;;;;8.82;2.58;;;7.00;99.90;;;;;;5024095;28;20194;-71
2021/05/24 03:19:34;;;;;;;5.72;2.50;;;7.00;99.90;;;;;;5025628;28;20232;-71
2021/05/24 03:21:59;;;;;;;6.22;2.50;;;7.00;99.90;;;;;;5024534;28;20551;-70
2021/05/24 03:24:25;;;;;;;6.72;2.63;;;7.00;99.90;;;;;;5023403;28;20278;-73
2021/05/24 03:26:51;;;;;;;4.55;2.70;;;7.00;99.90;;;;;;5023508;28;20198;-73
2021/05/24 03:29:16;;;;;;;4.20;2.55;;;6.90;99.90;;;;;;5025377;28;20213;-71
2021/05/24 03:31:42;;;;;;;4.20;2.38;;;7.00;99.90;;;;;;5023153;28;21241;-73
2021/05/24 03:34:08;;;;;;;4.78;2.38;;;7.00;99.90;;;;;;5025840;28;20545;-71
2021/05/24 03:36:34;;;;;;;4.97;2.55;;;7.00;99.90;;;;;;5025564;28;20197;-73
2021/05/24 03:39:00;;;;;;;4.78;2.60;;;6.90;99.90;;;;;;5025604;28;20194;-73
2021/05/24 03:41:25;;;;;;;7.55;2.22;;;6.90;99.90;;;;;;5019384;28;20190;-71
2021/05/24 03:43:51;;;;;;;5.15;2.70;;;6.90;99.90;;;;;;5023635;28;20240;-71
2021/05/24 03:46:17;;;;;;;4.00;2.25;;;6.90;99.90;;;;;;5027575;28;20578;-73
2021/05/24 03:48:42;;;;;;;5.57;2.65;;;6.90;99.90;;;;;;5024345;28;20206;-74
2021/05/24 03:51:09;;;;;;;5.65;2.20;;;6.90;99.90;;;;;;5041471;28;20189;-70
2021/05/24 03:53:35;;;;;;;5.18;2.33;;;6.90;99.90;;;;;;5021740;28;20209;-73
2021/05/24 03:56:02;;;;;;;4.43;2.63;;;7.00;99.90;;;;;;5024008;28;20566;-73
2021/05/24 03:58:28;;;;;;;8.88;2.70;;;6.90;99.90;;;;;;5020500;28;20206;-70
2021/05/24 04:00:54;;;;;;;4.95;2.70;;;7.00;99.90;;;;;;5022858;28;20825;-70
2021/05/24 04:03:20;;;;;;;4.30;2.60;;;7.00;99.90;;;;;;5015317;28;20932;-72
2021/05/24 04:05:48;;;;;;;4.47;2.90;;;7.00;99.90;;;;;;5026580;28;20285;-71
2021/05/24 04:08:15;;;;;;;4.35;2.63;;;7.00;99.90;;;;;;5023042;28;20228;-71
2021/05/24 04:10:51;;;;;;;3.33;2.50;;;6.90;99.90;;;;;;5024683;28;20204;-71
2021/05/24 04:13:17;;;;;;;4.93;2.75;;;7.00;99.90;;;;;;5023569;28;20197;-70
2021/05/24 04:15:47;;;;;;;5.53;2.25;;;7.00;99.90;;;;;;5027532;28;20197;-70
2021/05/24 04:18:16;;;;;;;4.07;2.55;;;7.00;99.90;;;;;;5029376;28;20563;-70
2021/05/24 04:20:44;;;;;;;5.78;2.60;;;7.00;99.90;;;;;;5025946;28;20626;-71
2021/05/24 04:23:10;;;;;;;6.00;2.70;;;7.00;99.90;;;;;;5026518;28;20236;-71
2021/05/24 04:25:35;;;;;;;5.05;2.50;;;7.00;99.90;;;;;;5026790;28;20567;-71
2021/05/24 04:28:01;;;;;;;6.03;2.70;;;7.00;99.90;;;;;;5029146;28;20268;-73
2021/05/24 04:30:27;;;;;;;4.00;2.40;;;7.00;99.90;;;;;;5026602;28;20202;-71
2021/05/24 04:32:52;;;;;;;4.60;2.47;;;6.90;99.90;;;;;;5024408;28;20206;-73
2021/05/24 04:35:18;;;;;;;4.50;2.70;;;6.90;99.90;;;;;;5023786;28;20242;-70
2021/05/24 04:37:45;;;;;;;4.15;2.78;;;6.90;99.90;;;;;;5024881;28;20205;-71
2021/05/24 04:40:11;;;;;;;4.25;2.50;;;7.00;99.90;;;;;;5021434;28;20268;-70
2021/05/24 04:42:37;;;;;;;4.60;2.80;;;7.00;99.90;;;;;;5012611;28;20195;-71
2021/05/24 04:45:04;;;;;;;6.15;3.10;;;7.00;99.90;;;;;;5016085;28;20186;-70
2021/05/24 04:47:29;;;;;;;10.40;3.90;;;7.00;99.90;;;;;;5022750;28;20431;-73
2021/05/24 04:49:55;;;;;;;5.18;2.72;;;7.10;99.90;;;;;;5018306;28;20281;-73
2021/05/24 04:52:21;;;;;;;5.50;2.72;;;7.10;99.90;;;;;;5026399;28;20640;-71
2021/05/24 04:54:47;;;;;;;11.40;2.95;;;7.10;99.90;;;;;;5020886;28;20232;-71
2021/05/24 04:57:14;;;;;;;3.85;2.47;;;7.00;99.90;;;;;;5024408;28;20221;-71
2021/05/24 04:59:39;;;;;;;5.88;3.10;;;7.00;99.90;;;;;;5020701;28;20618;-72
2021/05/24 05:02:05;;;;;;;7.18;3.20;;;7.00;99.90;;;;;;5022602;28;20265;-71
2021/05/24 05:04:31;;;;;;;4.35;2.83;;;7.00;99.90;;;;;;5025225;28;20209;-71
2021/05/24 05:06:57;;;;;;;4.60;2.65;;;7.00;99.90;;;;;;5023414;28;20194;-72
2021/05/24 05:09:26;;;;;;;4.20;2.65;;;7.10;99.90;;;;;;5025164;28;20202;-71
2021/05/24 05:11:53;;;;;;;7.82;2.83;;;7.00;99.90;;;;;;5023112;28;20304;-71
2021/05/24 05:14:19;;;;;;;6.15;3.20;;;7.00;99.90;;;;;;5023855;28;20205;-71
2021/05/24 05:16:45;;;;;;;7.00;3.20;;;7.00;99.90;;;;;;5027553;28;20488;-71
2021/05/24 05:19:11;;;;;;;5.35;2.92;;;7.00;99.90;;;;;;5022279;28;20198;-72
2021/05/24 05:21:37;;;;;;;5.07;3.10;;;7.00;99.90;;;;;;5025475;28;20767;-71
2021/05/24 05:24:03;;;;;;;8.68;3.13;;;7.10;99.90;;;;;;5013694;28;20202;-71
2021/05/24 05:26:28;;;;;;;6.18;2.50;;;7.10;99.90;;;;;;5027089;28;20535;-71
2021/05/24 05:28:54;;;;;;;5.85;2.47;;;7.20;99.90;;;;;;5017908;28;20194;-72
2021/05/24 05:31:20;;;;;;;4.90;2.60;;;7.20;99.90;;;;;;5021670;28;20198;-71
2021/05/24 05:33:46;;;;;;;6.95;2.50;;;7.30;99.90;;;;;;5027271;28;20288;-71
2021/05/24 05:36:11;;;;;;;5.32;2.78;;;7.20;99.90;;;;;;5026429;28;20551;-71
2021/05/24 05:38:38;;;;;;;9.70;2.65;;;7.20;99.90;;;;;;5023885;28;20194;-71
2021/05/24 05:41:05;;;;;;;7.85;2.65;;;7.20;99.90;;;;;;5027332;28;20297;-71
2021/05/24 05:43:31;;;;;;;5.53;2.75;;;7.20;99.90;;;;;;5013861;28;20634;-71
2021/05/24 05:45:56;;;;;;;4.30;2.58;;;7.30;99.90;;;;;;5029119;28;20212;-71
2021/05/24 05:48:22;;;;;;;4.22;2.63;;;7.40;99.90;;;;;;5028566;28;20688;-71
2021/05/24 05:50:48;;;;;;;4.28;2.97;;;7.40;99.90;;;;;;5019496;28;20190;-72
2021/05/24 05:53:14;;;;;;;7.68;3.20;;;7.50;99.90;;;;;;5030007;28;20186;-72
2021/05/24 05:55:40;;;;;;;4.40;2.75;;;7.50;99.90;;;;;;5019269;28;20194;-72
2021/05/24 05:58:06;;;;;;;5.70;2.65;;;7.50;99.90;;;;;;5016847;28;20204;-72
2021/05/24 06:00:33;;;;;;;3.80;2.53;;;7.50;99.90;;;;;;5021531;28;20206;-72
2021/05/24 06:02:58;;;;;;;6.20;2.95;;;7.60;99.90;;;;;;5024648;28;20602;-72
2021/05/24 06:05:24;;;;;;;4.97;2.78;;;7.60;99.90;;;;;;5022775;28;20194;-71
2021/05/24 06:07:50;;;;;;;6.18;2.70;;;7.70;99.90;;;;;;5020974;28;20206;-72
2021/05/24 06:10:16;;;;;;;5.10;2.90;;;7.70;99.90;;;;;;5023131;28;20212;-72
2021/05/24 06:12:43;;;;;;;3.67;2.53;;;7.60;99.90;;;;;;5028166;28;20244;-72
2021/05/24 06:15:13;;;;;;;4.15;2.85;;;7.60;99.90;;;;;;5029214;28;20504;-72
2021/05/24 06:17:38;;;;;;;7.85;2.60;;;7.70;99.90;;;;;;5034066;28;20609;-73
2021/05/24 06:20:05;;;;;;;7.07;2.30;;;7.80;99.90;;;;;;5038241;28;20260;-73
2021/05/24 06:22:31;;;;;;;3.42;2.38;;;7.80;99.90;;;;;;5026863;28;20285;-72
2021/05/24 06:24:57;;;;;;;6.53;2.20;;;7.90;99.90;;;;;;5027002;28;20276;-73
2021/05/24 06:27:22;;;;;;;3.08;2.22;;;8.00;99.90;;;;;;5027314;28;20518;-73
2021/05/24 06:29:48;;;;;;;4.80;2.53;;;8.00;99.90;;;;;;5021794;28;20305;-73
2021/05/24 06:32:13;;;;;;;3.83;2.05;;;7.90;99.90;;;;;;5030258;28;20691;-73
2021/05/24 06:34:39;;;;;;;4.60;2.20;;;8.00;99.90;;;;;;5024863;28;20664;-72
2021/05/24 06:37:05;;;;;;;4.95;2.40;;;7.90;99.90;;;;;;5026161;28;20213;-72
2021/05/24 06:39:30;;;;;;;4.43;2.13;;;7.90;99.90;;;;;;5028862;28;20198;-73
2021/05/24 06:41:56;;;;;;;4.85;2.20;;;7.90;99.90;;;;;;5029645;28;20194;-73
2021/05/24 06:44:22;;;;;;;3.03;2.42;;;8.00;99.90;;;;;;5025990;28;20194;-73
2021/05/24 06:46:48;;;;;;;5.88;2.58;;;8.00;99.90;;;;;;5026690;28;20190;-72
2021/05/24 06:49:14;;;;;;;3.40;1.90;;;8.00;99.90;;;;;;5026021;28;20688;-72
2021/05/24 06:51:40;;;;;;;5.38;2.35;;;8.00;99.90;;;;;;5024526;28;20205;-73
2021/05/24 06:54:06;;;;;;;3.75;2.30;;;8.00;99.90;;;;;;5027924;28;20255;-73
2021/05/24 06:56:31;;;;;;;5.68;2.58;;;8.00;99.90;;;;;;5025508;28;20198;-72
2021/05/24 06:58:57;;;;;;;9.32;4.25;;;8.00;99.90;;;;;;5026784;28;20690;-73
2021/05/24 07:01:23;;;;;;;6.97;2.63;;;8.00;99.90;;;;;;5022636;28;20294;-73
2021/05/24 07:03:49;;;;;;;3.58;1.95;;;8.00;99.90;;;;;;5026459;28;20340;-73
2021/05/24 07:06:16;;;;;;;2.38;2.00;;;8.00;99.90;;;;;;5025651;28;20202;-73
2021/05/24 07:08:42;;;;;;;5.07;2.25;;;8.00;99.90;;;;;;5028349;28;20208;-73
2021/05/24 07:11:07;;;;;;;1.90;1.70;;;8.00;99.90;;;;;;5021944;28;20202;-73
2021/05/24 07:13:33;;;;;;;4.03;2.00;;;8.00;99.90;;;;;;5025487;28;20289;-74
2021/05/24 07:15:59;;;;;;;3.50;2.10;;;8.10;99.90;;;;;;5025851;28;20214;-71
2021/05/24 07:18:25;;;;;;;4.95;1.70;;;8.10;99.90;;;;;;5024992;28;20216;-72
2021/05/24 07:20:50;;;;;;;5.07;1.85;;;8.00;99.90;;;;;;5023807;28;20645;-73
2021/05/24 07:23:16;;;;;;;4.05;2.00;;;8.00;99.90;;;;;;5030097;28;20248;-71
2021/05/24 07:25:43;;;;;;;4.22;1.70;;;8.00;99.90;;;;;;5023490;28;20293;-73
2021/05/24 07:28:08;;;;;;;4.60;1.90;;;7.90;99.90;;;;;;5027382;28;20193;-73
2021/05/24 07:30:34;;;;;;;6.50;2.00;;;7.80;99.90;;;;;;5024409;28;20202;-73
2021/05/24 07:33:00;;;;;;;2.45;1.73;;;7.90;99.90;;;;;;5025455;28;20230;-73
2021/05/24 07:35:27;;;;;;;10.68;1.77;;;7.90;99.90;;;;;;5028439;28;20642;-73
2021/05/24 07:37:53;;;;;;;2.08;1.40;;;8.00;99.90;;;;;;5029804;28;20190;-73
2021/05/24 07:40:19;;;;;;;3.78;1.60;;;8.10;99.90;;;;;;5019272;28;20690;-73
2021/05/24 07:42:46;;;;;;;4.72;1.52;;;8.10;99.90;;;;;;5029107;28;20272;-73
2021/05/24 07:45:12;;;;;;;3.55;1.67;;;8.10;99.90;;;;;;5026075;28;20186;-73
2021/05/24 07:47:38;;;;;;;3.28;1.60;;;8.20;99.90;;;;;;5022051;28;20209;-73
2021/05/24 07:50:05;;;;;;;3.55;1.52;;;8.30;99.90;;;;;;5027698;28;20198;-73
2021/05/24 07:52:30;;;;;;;1.85;1.15;;;8.40;99.90;;;;;;5027266;28;20202;-73
2021/05/24 07:54:58;;;;;;;1.92;1.40;;;8.50;99.90;;;;;;5029772;28;20191;-73
2021/05/24 07:57:24;;;;;;;3.10;1.30;;;8.60;99.90;;;;;;5027908;28;20202;-73
2021/05/24 07:59:50;;;;;;;1.90;1.40;;;8.70;99.90;;;;;;5015344;28;20225;-74
2021/05/24 08:02:15;;;;;;;2.92;1.55;;;8.70;99.90;;;;;;5025588;28;20308;-73
2021/05/24 08:04:41;;;;;;;5.70;1.70;;;8.70;99.90;;;;;;5025158;28;20202;-74
2021/05/24 08:07:07;;;;;;;7.28;1.30;;;8.70;99.90;;;;;;5023256;28;20325;-74
2021/05/24 08:09:32;;;;;;;1.50;1.30;;;8.80;99.90;;;;;;5022025;28;20286;-73
2021/05/24 08:11:58;;;;;;;2.55;1.50;;;8.80;99.90;;;;;;5027548;28;20193;-72
2021/05/24 08:14:24;;;;;;;1.83;1.40;;;8.90;99.90;;;;;;5018493;28;20588;-72
2021/05/24 08:16:50;;;;;;;1.95;1.33;;;9.00;99.90;;;;;;5018347;28;20206;-73
2021/05/24 08:19:16;;;;;;;1.95;1.50;;;9.00;99.90;;;;;;5021119;28;20559;-73
2021/05/24 08:21:48;;;;;;;2.13;1.30;;;9.00;99.90;;;;;;5023023;28;20190;-74
2021/05/24 08:24:15;;;;;;;2.33;1.40;;;9.00;99.90;;;;;;5027322;28;20265;-73
2021/05/24 08:26:41;;;;;;;2.80;1.40;;;9.10;99.90;;;;;;5021578;28;20213;-72
2021/05/24 08:29:07;;;;;;;1.45;1.00;;;9.20;99.90;;;;;;5019423;28;20197;-73
2021/05/24 08:31:35;;;;;;;2.40;1.45;;;9.30;99.90;;;;;;5023990;28;20202;-74
2021/05/24 08:34:00;;;;;;;5.10;1.40;;;9.30;99.90;;;;;;5018589;28;20229;-73
2021/05/24 08:36:26;;;;;;;2.85;1.38;;;9.50;99.90;;;;;;5019392;28;20230;-74
2021/05/24 08:38:52;;;;;;;1.77;1.23;;;9.70;99.90;;;;;;5021513;28;20193;-73
2021/05/24 08:41:18;;;;;;;3.42;1.17;;;9.80;99.90;;;;;;5021103;28;20209;-73
2021/05/24 08:43:45;;;;;;;1.92;1.25;;;10.00;99.90;;;;;;5024298;28;20218;-73
2021/05/24 08:46:11;;;;;;;3.28;1.10;;;10.00;99.90;;;;;;5020308;28;20201;-73
2021/05/24 08:48:37;;;;;;;1.92;1.13;;;10.00;99.90;;;;;;5026720;28;20197;-74
2021/05/24 08:51:08;;;;;;;1.58;1.10;;;9.90;99.90;;;;;;5021764;28;20256;-73
2021/05/24 08:53:36;;;;;;;1.30;1.20;;;9.90;99.90;;;;;;5022891;28;20337;-73
2021/05/24 08:56:03;;;;;;;3.72;1.13;;;9.90;99.90;;;;;;5017606;28;20198;-73
2021/05/24 08:58:29;;;;;;;1.27;1.00;;;9.80;99.90;;;;;;5021230;28;20207;-73
2021/05/24 09:00:55;;;;;;;2.88;1.15;;;9.70;99.90;;;;;;5038568;28;20232;-74
2021/05/24 09:03:22;;;;;;;1.92;1.20;;;9.70;99.90;;;;;;5021285;28;20226;-72
2021/05/24 09:05:50;;;;;;;2.05;1.17;;;9.70;99.90;;;;;;5025795;28;20245;-73
2021/05/24 09:08:16;;;;;;;1.30;1.10;;;9.80;99.90;;;;;;5021811;28;20651;-73
2021/05/24 09:10:44;;;;;;;1.25;1.02;;;9.90;99.90;;;;;;5023773;28;20238;-73
2021/05/24 09:13:21;;;;;;;1.15;1.00;;;10.00;99.90;;;;;;5015685;28;20638;-73
2021/05/24 09:15:47;;;;;;;1.35;1.20;;;9.90;99.90;;;;;;5041269;28;20205;-72
2021/05/24 09:18:15;;;;;;;1.20;1.10;;;9.80;99.90;;;;;;5023229;28;20297;-73
2021/05/24 09:20:43;;;;;;;2.85;1.10;;;10.00;99.90;;;;;;5023405;28;20667;-74
2021/05/24 09:23:20;;;;;;;0.90;0.90;;;10.10;99.90;;;;;;5026536;28;20190;-72
2021/05/24 09:25:58;;;;;;;1.73;1.15;;;10.00;99.90;;;;;;5012533;28;20198;-73
2021/05/24 09:28:26;;;;;;;1.10;1.00;;;10.00;99.90;;;;;;5022061;28;20198;-74
2021/05/24 09:30:54;;;;;;;2.00;1.25;;;10.10;99.90;;;;;;5016659;28;20669;-74
2021/05/24 09:33:20;;;;;;;1.35;1.23;;;10.30;99.90;;;;;;5019521;28;20229;-74
2021/05/24 09:35:48;;;;;;;1.30;1.20;;;10.20;99.90;;;;;;5020652;28;20245;-74
2021/05/24 09:38:15;;;;;;;2.60;1.45;;;10.40;99.90;;;;;;5021791;28;20256;-74
2021/05/24 09:40:43;;;;;;;1.35;1.20;;;10.50;99.90;;;;;;5020709;28;20212;-74
2021/05/24 09:43:10;;;;;;;1.75;1.30;;;10.70;99.90;;;;;;5026316;28;20190;-74
2021/05/24 09:45:40;;;;;;;2.25;1.40;;;10.80;99.90;;;;;;5022551;28;20212;-74
2021/05/24 09:48:05;;;;;;;3.20;1.88;;;10.60;99.90;;;;;;5017243;28;20525;-74
2021/05/24 09:50:31;;;;;;;3.92;2.35;;;10.40;99.90;;;;;;5035524;28;20201;-74
2021/05/24 09:52:57;;;;;;;3.70;2.00;;;10.50;99.90;;;;;;5019209;28;20202;-75
2021/05/24 09:55:25;;;;;;;5.80;2.55;;;10.60;99.90;;;;;;5018662;28;20716;-74
2021/05/24 09:57:58;;;;;;;3.65;2.03;;;10.50;99.90;;;;;;5021757;28;20205;-74
2021/05/24 10:01:29;;;;;;;5.13;2.47;;;10.70;99.90;;;;;;5016197;28;20221;-74
2021/05/24 10:03:30;;;;;;;4.00;2.22;;;10.70;99.90;;;;;;5013682;28;20752;-74
2021/05/24 10:05:56;;;;;;;4.07;2.20;;;10.70;99.90;;;;;;5017384;28;20210;-75
2021/05/24 10:08:21;;;;;;;3.65;2.20;;;10.60;99.90;;;;;;5023656;28;20195;-74
2021/05/24 10:10:47;;;;;;;6.60;2.45;;;10.50;99.90;;;;;;5021943;28;20203;-73
2021/05/24 10:13:13;;;;;;;5.07;2.33;;;10.40;99.90;;;;;;5024245;28;20541;-74
2021/05/24 10:15:40;;;;;;;2.78;2.00;;;10.20;99.90;;;;;;5021394;28;20276;-74
2021/05/24 10:18:07;;;;;;;4.13;2.20;;;10.10;99.90;;;;;;5023795;28;20202;-74
2021/05/24 10:20:34;;;;;;;5.32;2.40;;;10.20;99.90;;;;;;5018871;28;20625;-75
2021/05/24 10:23:01;;;;;;;7.07;2.40;;;10.50;99.90;;;;;;5018841;28;20675;-75
2021/05/24 10:25:28;;;;;;;4.70;2.30;;;10.80;99.90;;;;;;5022005;28;20202;-75
2021/05/24 10:27:54;;;;;;;6.55;2.33;;;11.00;99.90;;;;;;5017514;28;20195;-75
2021/05/24 10:30:20;;;;;;;4.90;2.40;;;11.10;99.90;;;;;;5017888;28;20198;-74
2021/05/24 10:33:02;;;;;;;6.05;2.75;;;11.10;99.90;;;;;;5020172;28;20751;-74
2021/05/24 10:35:35;;;;;;;6.38;2.55;;;11.20;99.90;;;;;;5024364;28;20241;-74
2021/05/24 10:38:29;;;;;;;5.78;2.92;;;11.40;99.90;;;;;;5020026;28;20208;-74
2021/05/24 10:41:21;;;;;;;6.68;2.58;;;11.70;99.90;;;;;;5018882;28;20202;-74
2021/05/24 10:43:56;;;;;;;5.35;3.17;;;12.20;99.90;;;;;;5019713;28;20209;-75
2021/05/24 10:46:32;;;;;;;5.32;2.88;;;12.60;99.90;;;;;;5025047;28;20194;-75
2021/05/24 10:49:05;;;;;;;5.93;3.00;;;13.10;99.90;;;;;;5021190;28;20221;-74
2021/05/24 10:51:51;;;;;;;6.07;2.53;;;13.50;99.90;;;;;;5021200;28;20232;-75
2021/05/24 10:54:20;;;;;;;6.63;2.85;;;13.70;99.90;;;;;;5024883;28;20182;-74
2021/05/24 10:57:05;;;;;;;5.35;2.80;;;13.60;99.90;;;;;;5023303;28;20212;-74
2021/05/24 10:59:43;;;;;;;9.57;3.05;;;13.30;99.90;;;;;;5019524;28;20540;-73
2021/05/24 11:02:13;;;;;;;6.07;2.65;;;13.00;99.90;;;;;;5024845;28;20828;-74
2021/05/24 11:04:58;;;;;;;4.97;2.78;;;13.10;99.90;;;;;;5025616;28;21637;-74
2021/05/24 11:07:35;;;;;;;8.65;2.90;;;13.20;99.90;;;;;;5041389;28;20569;-74
2021/05/24 11:10:16;;;;;;;4.95;2.70;;;13.40;99.90;;;;;;5022635;28;20285;-73
2021/05/24 11:12:47;;;;;;;5.53;2.78;;;13.60;99.90;;;;;;5028444;28;20192;-74
2021/05/24 11:15:23;;;;;;;6.85;2.72;;;14.10;99.90;;;;;;5030810;28;20198;-74
2021/05/24 11:18:01;;;;;;;9.80;2.63;;;14.70;99.90;;;;;;5023790;28;20205;-75
2021/05/24 11:20:50;;;;;;;4.75;2.60;;;15.10;99.90;;;;;;5025652;28;20214;-76
2021/05/24 11:23:36;;;;;;;7.55;2.75;;;15.40;99.90;;;;;;5023679;28;20195;-75
2021/05/24 11:29:14;;;;;;;5.88;2.40;;;15.60;99.90;;;;;;5030047;28;20644;-76
2021/05/24 11:31:44;;;;;;;5.05;2.40;;;15.40;99.90;;;;;;5022561;28;20210;-75
2021/05/24 11:34:28;;;;;;;10.55;3.10;;;15.20;99.90;;;;;;5029070;28;20715;-75
2021/05/24 11:37:05;;;;;;;9.23;2.90;;;15.00;99.90;;;;;;5024223;28;20284;-76
2021/05/24 11:39:37;;;;;;;3.92;2.40;;;14.90;99.90;;;;;;5027826;28;20282;-76
2021/05/24 11:42:04;;;;;;;6.07;2.88;;;14.70;99.90;;;;;;5024186;28;20190;-76
2021/05/24 11:44:51;;;;;;;6.38;3.03;;;14.20;99.90;;;;;;5027346;28;20605;-72
2021/05/24 11:47:20;;;;;;;9.73;3.00;;;14.20;99.90;;;;;;5025558;28;20530;-76
2021/05/24 11:49:53;;;;;;;8.27;2.90;;;14.20;99.90;;;;;;5025800;28;20312;-74
2021/05/24 11:52:33;;;;;;;4.13;2.50;;;14.00;99.90;;;;;;5027928;28;20200;-74
2021/05/24 11:54:59;;;;;;;10.68;3.15;;;14.00;99.90;;;;;;5019448;28;20202;-75
2021/05/24 11:57:31;;;;;;;7.13;2.78;;;14.10;99.90;;;;;;5030860;28;20198;-75
2021/05/24 11:59:56;;;;;;;5.93;2.65;;;14.50;99.90;;;;;;5023192;28;20680;-75
2021/05/24 12:02:23;;;;;;;9.90;2.92;;;15.00;99.90;;;;;;5021344;28;20221;-75
2021/05/24 12:04:50;;;;;;;4.90;2.30;;;15.50;99.90;;;;;;5023267;28;20195;-75
2021/05/24 12:07:22;;;;;;;6.15;2.20;;;16.20;99.90;;;;;;5026383;28;20202;-75
2021/05/24 12:09:58;;;;;;;5.63;2.40;;;16.20;99.90;;;;;;5025627;28;20574;-72
2021/05/24 12:12:25;;;;;;;10.75;2.50;;;16.10;99.90;;;;;;5018621;28;20216;-76
2021/05/24 12:14:56;;;;;;;6.78;2.05;;;16.10;99.90;;;;;;5026044;28;20199;-76
2021/05/24 12:17:24;;;;;;;8.98;2.35;;;15.90;99.90;;;;;;5025809;28;20191;-76
2021/05/24 12:19:53;;;;;;;3.65;1.98;;;15.60;99.90;;;;;;5024332;28;20202;-76
2021/05/24 12:22:21;;;;;;;7.25;2.13;;;15.50;99.90;;;;;;5018876;28;20203;-76
2021/05/24 12:24:48;;;;;;;4.85;1.98;;;15.70;99.90;;;;;;5025405;28;20182;-74
2021/05/24 12:27:16;;;;;;;9.60;2.47;;;16.20;99.90;;;;;;5024784;28;20546;-77
2021/05/24 12:29:51;;;;;;;7.90;2.40;;;16.10;99.90;;;;;;5021256;28;20217;-76
2021/05/24 12:32:26;;;;;;;5.68;1.85;;;16.30;99.90;;;;;;5024414;28;20194;-76
2021/05/24 12:34:52;;;;;;;4.30;1.77;;;16.00;99.90;;;;;;5032884;28;20255;-77
2021/05/24 12:37:18;;;;;;;8.38;2.28;;;16.10;99.90;;;;;;5019881;28;20667;-74
2021/05/24 12:39:46;;;;;;;6.55;1.95;;;16.00;99.90;;;;;;5020538;28;20228;-78
2021/05/24 12:42:15;;;;;;;9.00;2.35;;;15.90;99.90;;;;;;5023102;28;20195;-76
2021/05/24 12:44:41;;;;;;;4.88;1.75;;;15.50;99.90;;;;;;5021428;28;20205;-78
2021/05/24 12:47:17;;;;;;;6.43;2.20;;;15.20;99.90;;;;;;5024655;28;20811;-75
2021/05/24 12:49:46;;;;;;;3.90;1.98;;;15.40;99.90;;;;;;5020710;28;20201;-77
2021/05/24 12:52:12;;;;;;;4.43;1.90;;;15.40;99.90;;;;;;5025738;28;20212;-76
2021/05/24 12:54:46;;;;;;;5.28;2.05;;;15.50;99.90;;;;;;5021243;28;20207;-75
2021/05/24 12:57:30;;;;;;;5.93;2.20;;;15.30;99.90;;;;;;5024844;28;20212;-77
2021/05/24 12:59:57;;;;;;;6.15;1.92;;;15.30;99.90;;;;;;5024469;28;20220;-75